Time;durP1;ratioP1;P1;durP2;ratioP2;P2;SDS_P1;SDS_P2;PMS_P1;PMS_P2;Temp;Humidity;BMP_temperature;BMP_pressure;BME280_temperature;BME280_humidity;BME280_pressure;Samples;Min_cycle;Max_cycle;Signal;HPM_P1;HPM_P2
2023/04/25 00:01:47;;;;;;;1.70;1.48;;;11.70;70.70;;;;;;5038106;28;20032;-86
2023/04/25 00:04:13;;;;;;;2.10;1.55;;;11.60;70.70;;;;;;5021947;28;20025;-86
2023/04/25 00:06:39;;;;;;;1.95;1.40;;;11.60;71.30;;;;;;5021648;28;20428;-86
2023/04/25 00:09:09;;;;;;;2.58;1.63;;;11.60;70.70;;;;;;5021805;28;20036;-86
2023/04/25 00:11:36;;;;;;;2.30;1.52;;;11.60;70.70;;;;;;5039295;28;20028;-86
2023/04/25 00:14:03;;;;;;;2.22;1.42;;;11.60;70.70;;;;;;5022394;28;20515;-87
2023/04/25 00:16:33;;;;;;;2.35;1.52;;;11.50;70.70;;;;;;5004256;28;20036;-87
2023/04/25 00:18:59;;;;;;;2.42;1.48;;;11.50;70.70;;;;;;5021484;28;20029;-86
2023/04/25 00:21:25;;;;;;;3.03;1.85;;;11.50;70.70;;;;;;5038227;28;20025;-89
2023/04/25 00:23:52;;;;;;;2.90;1.80;;;11.40;70.70;;;;;;5038045;28;20059;-86
2023/04/25 00:26:20;;;;;;;2.28;1.70;;;11.40;70.70;;;;;;5037438;28;20025;-86
2023/04/25 00:28:47;;;;;;;1.45;1.30;;;11.40;70.70;;;;;;5037875;28;20115;-86
2023/04/25 00:31:13;;;;;;;2.40;1.52;;;11.40;70.70;;;;;;5020541;28;20037;-86
2023/04/25 00:33:39;;;;;;;2.55;1.50;;;11.40;70.70;;;;;;5037544;28;20035;-86
2023/04/25 00:36:06;;;;;;;2.67;1.50;;;11.40;70.80;;;;;;5006167;28;20032;-88
2023/04/25 00:38:32;;;;;;;3.70;1.65;;;11.30;70.80;;;;;;5027289;28;20044;-88
2023/04/25 00:40:58;;;;;;;1.33;1.23;;;11.30;70.80;;;;;;5018600;28;20029;-88
2023/04/25 00:43:30;;;;;;;3.22;1.65;;;11.30;70.80;;;;;;5045284;28;20086;-89
2023/04/25 00:45:57;;;;;;;2.10;1.40;;;11.30;70.80;;;;;;5037964;28;20036;-90
2023/04/25 00:48:23;;;;;;;2.25;1.70;;;11.30;70.80;;;;;;5020571;28;20025;-89
2023/04/25 00:50:54;;;;;;;2.38;1.60;;;11.30;70.80;;;;;;5004724;28;20035;-89
2023/04/25 00:53:21;;;;;;;2.85;1.48;;;11.20;70.90;;;;;;5036420;28;20024;-86
2023/04/25 00:55:50;;;;;;;3.33;1.40;;;11.20;70.90;;;;;;5020432;28;20037;-88
2023/04/25 00:58:17;;;;;;;2.40;1.92;;;11.10;70.90;;;;;;5020230;28;20029;-88
2023/04/25 01:00:45;;;;;;;2.53;1.58;;;11.20;71.00;;;;;;5004955;28;20047;-86
2023/04/25 01:03:12;;;;;;;4.07;1.60;;;11.10;70.90;;;;;;5036911;28;20025;-89
2023/04/25 01:05:39;;;;;;;2.35;1.70;;;11.10;71.00;;;;;;5020439;28;20440;-90
2023/04/25 01:08:05;;;;;;;2.70;1.90;;;11.10;71.00;;;;;;5036765;28;20098;-90
2023/04/25 01:10:31;;;;;;;3.72;1.90;;;11.10;71.00;;;;;;5003999;28;20025;-86
2023/04/25 01:12:56;;;;;;;3.15;1.75;;;11.10;71.00;;;;;;5020285;28;20461;-86
2023/04/25 01:15:22;;;;;;;4.22;1.98;;;11.10;71.00;;;;;;5020744;28;20032;-87
2023/04/25 01:17:49;;;;;;;3.92;1.90;;;11.00;71.00;;;;;;5036778;28;20028;-85
2023/04/25 01:20:15;;;;;;;2.95;1.80;;;11.00;71.00;;;;;;5020818;28;20100;-87
2023/04/25 01:22:42;;;;;;;3.03;1.90;;;11.00;71.00;;;;;;5020327;28;20032;-86
2023/04/25 01:25:09;;;;;;;3.03;1.77;;;11.00;71.10;;;;;;5020471;28;20112;-83
2023/04/25 01:27:39;;;;;;;2.72;1.70;;;10.90;71.00;;;;;;5019793;28;20120;-88
2023/04/25 01:30:08;;;;;;;1.75;1.50;;;11.00;71.10;;;;;;5021386;28;20029;-86
2023/04/25 01:32:38;;;;;;;3.63;1.98;;;10.90;71.00;;;;;;5036822;28;20028;-88
2023/04/25 01:35:10;;;;;;;2.78;1.70;;;10.90;71.10;;;;;;5036483;28;20443;-88
2023/04/25 01:37:38;;;;;;;3.22;2.00;;;10.90;71.10;;;;;;5036717;28;20063;-88
2023/04/25 01:40:06;;;;;;;3.47;1.95;;;10.90;71.10;;;;;;5020204;28;20021;-85
2023/04/25 01:42:34;;;;;;;3.00;1.65;;;10.90;71.10;;;;;;5005956;28;20033;-86
2023/04/25 01:45:00;;;;;;;3.08;2.17;;;10.80;71.10;;;;;;5036594;28;20021;-86
2023/04/25 01:47:27;;;;;;;2.55;1.60;;;10.80;71.20;;;;;;5020587;28;20028;-87
2023/04/25 01:49:54;;;;;;;3.28;1.88;;;10.80;71.10;;;;;;5004520;28;20037;-85
2023/04/25 01:52:20;;;;;;;3.33;1.90;;;10.80;71.10;;;;;;5025882;28;20060;-85
2023/04/25 01:54:47;;;;;;;2.20;1.70;;;10.80;71.20;;;;;;5021467;28;20045;-85
2023/04/25 01:57:14;;;;;;;2.45;1.88;;;10.80;71.20;;;;;;5003906;28;20060;-85
2023/04/25 01:59:43;;;;;;;2.58;1.98;;;10.70;71.20;;;;;;5004275;28;20036;-86
2023/04/25 02:02:29;;;;;;;4.13;1.88;;;10.70;71.20;;;;;;5022982;28;20029;-86
2023/04/25 02:04:56;;;;;;;2.33;1.85;;;10.70;71.20;;;;;;5037388;28;20025;-87
2023/04/25 02:07:23;;;;;;;2.33;1.80;;;10.70;71.20;;;;;;5004275;28;20033;-85
2023/04/25 02:09:52;;;;;;;2.58;1.77;;;10.70;71.20;;;;;;5020762;28;20029;-85
2023/04/25 02:12:19;;;;;;;3.67;1.95;;;10.70;71.20;;;;;;5022776;28;20071;-85
2023/04/25 02:15:04;;;;;;;3.80;2.10;;;10.70;71.30;;;;;;5036026;28;20075;-88
2023/04/25 02:17:45;;;;;;;3.53;2.00;;;10.70;71.30;;;;;;5017211;28;20272;-85
2023/04/25 02:20:11;;;;;;;3.58;1.77;;;10.60;71.20;;;;;;5025310;28;20061;-86
2023/04/25 02:22:39;;;;;;;3.08;1.67;;;10.60;71.30;;;;;;5005353;28;20029;-86
2023/04/25 02:25:06;;;;;;;3.58;2.00;;;10.60;71.30;;;;;;5019917;28;20029;-86
2023/04/25 02:27:32;;;;;;;4.38;1.88;;;10.60;71.30;;;;;;5004159;28;20040;-87
2023/04/25 02:29:58;;;;;;;3.20;2.13;;;10.60;71.40;;;;;;5019631;28;20458;-86
2023/04/25 02:32:23;;;;;;;2.28;1.63;;;10.60;71.40;;;;;;5019706;28;20491;-86
2023/04/25 02:34:49;;;;;;;3.78;2.10;;;10.60;71.40;;;;;;5020042;28;20029;-85
2023/04/25 02:37:15;;;;;;;3.28;2.10;;;10.60;71.40;;;;;;5019847;28;20470;-86
2023/04/25 02:39:41;;;;;;;4.28;2.10;;;10.60;71.40;;;;;;5006511;28;20036;-86
2023/04/25 02:42:07;;;;;;;2.78;1.83;;;10.50;71.30;;;;;;5006948;28;20060;-85
2023/04/25 02:44:32;;;;;;;2.72;2.00;;;10.60;71.40;;;;;;5022980;28;20044;-86
2023/04/25 02:46:58;;;;;;;3.97;1.80;;;10.50;71.30;;;;;;5007863;28;20041;-86
2023/04/25 02:49:24;;;;;;;4.97;1.80;;;10.50;71.30;;;;;;5052905;28;20051;-85
2023/04/25 02:51:51;;;;;;;3.22;1.80;;;10.50;71.30;;;;;;5026280;28;20386;-85
2023/04/25 02:54:17;;;;;;;3.28;2.15;;;10.50;71.40;;;;;;5023685;28;20357;-86
2023/04/25 02:56:46;;;;;;;2.95;2.00;;;10.50;71.40;;;;;;5007622;28;20032;-86
2023/04/25 02:59:18;;;;;;;2.20;1.85;;;10.40;71.40;;;;;;5008429;28;20029;-85
2023/04/25 03:01:44;;;;;;;3.78;1.90;;;10.40;71.40;;;;;;5007097;28;20025;-85
2023/04/25 03:04:09;;;;;;;2.80;1.90;;;10.40;71.40;;;;;;5023168;28;20025;-86
2023/04/25 03:06:35;;;;;;;4.07;2.28;;;10.40;71.40;;;;;;5006088;28;20126;-89
2023/04/25 03:09:01;;;;;;;3.28;2.00;;;10.40;71.40;;;;;;5023042;28;20029;-85
2023/04/25 03:11:27;;;;;;;3.45;1.98;;;10.40;71.40;;;;;;5022423;28;20033;-86
2023/04/25 03:13:53;;;;;;;3.05;1.83;;;10.40;71.40;;;;;;5022319;28;20033;-86
2023/04/25 03:16:20;;;;;;;3.47;2.15;;;10.40;71.50;;;;;;5022962;28;20036;-88
2023/04/25 03:18:46;;;;;;;4.00;2.20;;;10.30;71.40;;;;;;5022701;28;20096;-86
2023/04/25 03:21:12;;;;;;;4.28;2.03;;;10.30;71.40;;;;;;5022162;28;20032;-87
2023/04/25 03:23:37;;;;;;;3.25;2.03;;;10.30;71.40;;;;;;5022194;28;20036;-88
2023/04/25 03:26:04;;;;;;;3.15;2.03;;;10.30;71.40;;;;;;5022480;28;20055;-85
2023/04/25 03:28:29;;;;;;;4.15;1.80;;;10.30;71.40;;;;;;5005637;28;20057;-87
2023/04/25 03:30:56;;;;;;;4.82;2.10;;;10.20;71.40;;;;;;5006765;28;20043;-85
2023/04/25 03:33:23;;;;;;;3.33;1.98;;;10.20;71.40;;;;;;5006933;28;20037;-87
2023/04/25 03:35:49;;;;;;;3.53;2.00;;;10.20;71.40;;;;;;5022701;28;20029;-85
2023/04/25 03:38:16;;;;;;;4.65;2.55;;;10.20;71.50;;;;;;5038150;28;20021;-86
2023/04/25 03:40:42;;;;;;;3.55;2.20;;;10.10;71.40;;;;;;5022028;28;20043;-90
2023/04/25 03:43:16;;;;;;;2.95;2.00;;;10.20;71.40;;;;;;5007462;28;20043;-87
2023/04/25 03:45:48;;;;;;;4.43;2.08;;;10.10;71.40;;;;;;5023567;28;20029;-86
2023/04/25 03:48:14;;;;;;;3.88;2.13;;;10.10;71.40;;;;;;5038636;28;20044;-93
2023/04/25 03:50:40;;;;;;;3.05;2.05;;;10.10;71.40;;;;;;5005445;28;20029;-85
2023/04/25 03:53:06;;;;;;;5.85;2.60;;;10.10;71.40;;;;;;5022532;28;20028;-87
2023/04/25 03:55:49;;;;;;;4.10;2.40;;;10.10;71.40;;;;;;5010406;28;20048;-86
2023/04/25 03:58:15;;;;;;;4.22;2.47;;;10.00;71.40;;;;;;5022495;28;20059;-87
2023/04/25 04:00:41;;;;;;;4.25;2.38;;;10.00;71.40;;;;;;5038275;28;20040;-86
2023/04/25 04:03:07;;;;;;;2.60;1.90;;;10.00;71.50;;;;;;5038522;28;20127;-87
2023/04/25 04:05:33;;;;;;;3.72;2.10;;;10.00;71.50;;;;;;5005254;28;20106;-87
2023/04/25 04:08:01;;;;;;;4.20;2.08;;;10.00;71.50;;;;;;5006474;28;20413;-86
2023/04/25 04:10:28;;;;;;;2.40;1.80;;;10.00;71.50;;;;;;5009398;28;20385;-85
2023/04/25 04:12:54;;;;;;;3.63;2.03;;;10.00;71.50;;;;;;5026883;28;20033;-88
2023/04/25 04:15:20;;;;;;;3.05;2.15;;;9.90;71.50;;;;;;5029293;28;20028;-87
2023/04/25 04:17:49;;;;;;;3.30;2.05;;;9.90;71.50;;;;;;5060136;28;20040;-88
2023/04/25 04:20:15;;;;;;;3.88;2.35;;;9.90;71.50;;;;;;5060840;28;20036;-85
2023/04/25 04:22:41;;;;;;;3.85;2.40;;;9.90;71.50;;;;;;5027169;28;20036;-86
2023/04/25 04:25:11;;;;;;;3.72;2.00;;;9.80;71.40;;;;;;5022917;28;20089;-85
2023/04/25 04:28:07;;;;;;;3.42;2.20;;;9.90;71.50;;;;;;4990652;28;20539;-87
2023/04/25 04:31:02;;;;;;;3.30;2.08;;;9.80;71.40;;;;;;5044559;28;20033;-87
2023/04/25 04:33:30;;;;;;;3.30;1.98;;;9.80;71.40;;;;;;5011613;28;20037;-87
2023/04/25 04:36:00;;;;;;;2.90;2.00;;;9.70;71.40;;;;;;5039633;28;20043;-87
2023/04/25 04:38:27;;;;;;;5.80;2.70;;;9.70;71.40;;;;;;5021278;28;20036;-85
2023/04/25 04:40:57;;;;;;;3.30;2.15;;;9.70;71.50;;;;;;5005444;28;20021;-86
2023/04/25 04:43:40;;;;;;;3.05;2.00;;;9.70;71.50;;;;;;5009866;28;20462;-86
2023/04/25 04:46:06;;;;;;;5.30;2.03;;;9.70;71.50;;;;;;5020874;28;20044;-85
2023/04/25 04:48:45;;;;;;;2.33;2.10;;;9.70;71.50;;;;;;5040675;28;20495;-85
2023/04/25 04:51:31;;;;;;;4.60;2.50;;;9.60;71.40;;;;;;5063007;28;20106;-86
2023/04/25 04:54:10;;;;;;;3.55;2.10;;;9.60;71.50;;;;;;5036786;28;20041;-84
2023/04/25 04:57:09;;;;;;;2.83;2.35;;;9.60;71.40;;;;;;4992043;28;20060;-86
2023/04/25 04:59:51;;;;;;;2.72;2.08;;;9.60;71.40;;;;;;5009860;28;20037;-85
2023/04/25 05:02:35;;;;;;;3.73;2.20;;;9.50;71.40;;;;;;5039656;28;20066;-85
2023/04/25 05:05:21;;;;;;;4.80;2.47;;;9.50;71.40;;;;;;5025721;28;20283;-86
2023/04/25 05:08:10;;;;;;;4.20;2.40;;;9.50;71.40;;;;;;5010500;28;20048;-87
2023/04/25 05:11:08;;;;;;;5.60;2.30;;;9.50;71.40;;;;;;5029996;28;20033;-88
2023/04/25 05:14:00;;;;;;;3.05;2.20;;;9.50;71.40;;;;;;5040854;28;20131;-87
2023/04/25 05:17:08;;;;;;;4.00;2.22;;;9.40;71.40;;;;;;5019525;28;20045;-87
2023/04/25 05:19:46;;;;;;;3.08;2.40;;;9.40;71.40;;;;;;5008284;28;20029;-87
2023/04/25 05:22:32;;;;;;;4.10;2.30;;;9.40;71.50;;;;;;5055308;28;20048;-86
2023/04/25 05:25:15;;;;;;;3.78;2.45;;;9.40;71.50;;;;;;5056218;28;20090;-86
2023/04/25 05:27:58;;;;;;;2.90;2.10;;;9.40;71.50;;;;;;5008628;28;20048;-85
2023/04/25 05:30:39;;;;;;;2.73;2.13;;;9.40;71.50;;;;;;5025508;28;20158;-85
2023/04/25 05:33:21;;;;;;;3.10;2.30;;;9.40;71.50;;;;;;5023079;28;20309;-86
2023/04/25 05:35:47;;;;;;;4.43;2.30;;;9.30;71.50;;;;;;5005249;28;20482;-87
2023/04/25 05:38:14;;;;;;;3.80;2.13;;;9.30;71.50;;;;;;5021002;28;20075;-86
2023/04/25 05:41:00;;;;;;;3.50;2.13;;;9.30;71.50;;;;;;5000433;28;20409;-85
2023/04/25 05:43:46;;;;;;;4.13;2.22;;;9.40;71.50;;;;;;5022513;28;20041;-85
2023/04/25 05:46:35;;;;;;;3.20;2.00;;;9.30;71.50;;;;;;5030430;28;20100;-85
2023/04/25 05:49:12;;;;;;;4.25;2.38;;;9.30;71.50;;;;;;5022664;28;20116;-85
2023/04/25 05:51:53;;;;;;;4.90;2.55;;;9.30;71.50;;;;;;5039283;28;20466;-86
2023/04/25 05:54:41;;;;;;;3.58;2.15;;;9.30;71.50;;;;;;5022584;28;20056;-86
2023/04/25 05:57:07;;;;;;;3.67;2.30;;;9.30;71.50;;;;;;5020886;28;20025;-86
2023/04/25 05:59:33;;;;;;;3.55;2.40;;;9.40;71.60;;;;;;5054134;28;20033;-87
2023/04/25 06:01:59;;;;;;;2.92;1.95;;;9.30;71.50;;;;;;5020807;28;20029;-86
2023/04/25 06:04:26;;;;;;;4.00;2.25;;;9.40;71.70;;;;;;5037943;28;20033;-89
2023/04/25 06:06:55;;;;;;;3.10;2.28;;;9.40;71.70;;;;;;5031863;28;20013;-86
2023/04/25 06:09:22;;;;;;;2.67;1.75;;;9.40;71.70;;;;;;5019423;28;20064;-87
2023/04/25 06:11:48;;;;;;;3.05;2.05;;;9.40;71.60;;;;;;5342737;22;20348;-87
2023/04/25 06:14:14;;;;;;;2.72;1.90;;;9.40;71.70;;;;;;4995841;28;20033;-87
2023/04/25 06:16:46;;;;;;;3.08;2.03;;;9.40;71.60;;;;;;5002992;28;20056;-86
2023/04/25 06:19:12;;;;;;;3.53;2.30;;;9.40;71.60;;;;;;5015540;28;20053;-86
2023/04/25 06:21:38;;;;;;;3.67;2.17;;;9.40;72.20;;;;;;5020910;28;20033;-84
2023/04/25 06:24:04;;;;;;;3.97;2.47;;;9.40;71.60;;;;;;5002775;28;20025;-84
2023/04/25 06:26:30;;;;;;;3.47;2.30;;;9.40;71.70;;;;;;5003552;28;20094;-85
2023/04/25 06:28:56;;;;;;;2.92;2.10;;;9.40;71.70;;;;;;5000325;28;20039;-85
2023/04/25 06:31:22;;;;;;;4.85;2.60;;;9.40;71.60;;;;;;5002254;28;20279;-84
2023/04/25 06:33:49;;;;;;;2.90;2.25;;;9.50;71.70;;;;;;5009534;28;20025;-84
2023/04/25 06:36:15;;;;;;;3.20;2.25;;;9.50;71.70;;;;;;4995261;28;20041;-85
2023/04/25 06:38:43;;;;;;;4.18;2.58;;;9.50;71.70;;;;;;4990230;28;20036;-84
2023/04/25 06:41:09;;;;;;;3.47;2.15;;;9.50;71.70;;;;;;5003612;28;20026;-84
2023/04/25 06:43:36;;;;;;;2.92;1.88;;;9.50;71.90;;;;;;5015848;28;20021;-84
2023/04/25 06:46:08;;;;;;;3.40;2.13;;;9.50;71.70;;;;;;5011232;28;20036;-85
2023/04/25 06:48:42;;;;;;;3.53;2.20;;;9.50;71.70;;;;;;5004989;28;20044;-86
2023/04/25 06:51:08;;;;;;;3.60;2.08;;;9.60;71.70;;;;;;4987030;28;20281;-87
2023/04/25 06:53:36;;;;;;;3.97;2.35;;;9.60;71.60;;;;;;5004312;28;20044;-85
2023/04/25 06:56:05;;;;;;;3.63;1.92;;;9.60;71.70;;;;;;4991508;28;20041;-86
2023/04/25 06:58:44;;;;;;;3.30;2.10;;;9.60;71.60;;;;;;5010141;28;20100;-87
2023/04/25 07:01:33;;;;;;;2.80;2.25;;;9.70;71.60;;;;;;4998356;28;20037;-87
2023/04/25 07:04:03;;;;;;;2.10;1.73;;;9.70;71.60;;;;;;5012624;28;20022;-84
2023/04/25 07:06:31;;;;;;;3.50;2.30;;;9.70;71.60;;;;;;4984947;28;20045;-86
2023/04/25 07:08:57;;;;;;;3.53;2.20;;;9.70;71.60;;;;;;5016052;28;20121;-85
2023/04/25 07:11:23;;;;;;;3.75;2.10;;;9.80;71.70;;;;;;4981353;28;20037;-88
2023/04/25 07:13:49;;;;;;;2.67;2.10;;;9.70;71.60;;;;;;4986576;28;20050;-87
2023/04/25 07:16:16;;;;;;;4.95;2.30;;;9.80;71.60;;;;;;5008713;28;20044;-87
2023/04/25 07:18:42;;;;;;;2.30;2.10;;;9.80;71.60;;;;;;4993386;28;20018;-84
2023/04/25 07:21:09;;;;;;;4.15;2.30;;;9.80;71.60;;;;;;5003361;28;20041;-85
2023/04/25 07:23:37;;;;;;;3.70;2.10;;;9.90;71.70;;;;;;5006183;28;20037;-86
2023/04/25 07:26:09;;;;;;;3.53;1.83;;;9.90;72.30;;;;;;5006361;28;20042;-86
2023/04/25 07:28:39;;;;;;;4.25;2.15;;;9.90;71.60;;;;;;5014748;28;20040;-86
2023/04/25 07:31:05;;;;;;;3.10;1.98;;;9.90;71.60;;;;;;5017758;28;20228;-86
2023/04/25 07:33:31;;;;;;;2.63;1.77;;;10.00;71.60;;;;;;5003541;28;20095;-86
2023/04/25 07:35:57;;;;;;;2.00;1.65;;;10.00;71.70;;;;;;5012512;28;20452;-86
2023/04/25 07:38:23;;;;;;;2.92;1.90;;;10.00;71.60;;;;;;5014840;28;20038;-86
2023/04/25 07:40:49;;;;;;;2.72;1.90;;;10.00;71.60;;;;;;5015006;28;20390;-85
2023/04/25 07:43:16;;;;;;;3.72;2.00;;;10.10;71.70;;;;;;4986935;28;20041;-85
2023/04/25 07:45:56;;;;;;;2.90;2.05;;;10.10;71.60;;;;;;5001374;28;20045;-86
2023/04/25 07:48:23;;;;;;;3.38;1.95;;;10.10;71.60;;;;;;5013777;28;20135;-86
2023/04/25 07:50:51;;;;;;;2.72;1.80;;;10.10;71.50;;;;;;4996632;28;20022;-86
2023/04/25 07:53:18;;;;;;;4.32;1.80;;;10.20;71.50;;;;;;5014094;28;20438;-86
2023/04/25 07:55:52;;;;;;;3.28;2.22;;;10.20;71.50;;;;;;4984592;28;20025;-86
2023/04/25 07:58:21;;;;;;;2.22;1.58;;;10.20;71.40;;;;;;5004825;28;20033;-85
2023/04/25 08:00:49;;;;;;;3.08;1.85;;;10.20;71.40;;;;;;4992229;28;20255;-86
2023/04/25 08:03:44;;;;;;;2.67;1.70;;;10.30;71.40;;;;;;5004334;28;20033;-84
2023/04/25 08:06:20;;;;;;;1.95;1.50;;;10.30;71.30;;;;;;5010684;28;20046;-86
2023/04/25 08:08:58;;;;;;;2.30;1.52;;;10.30;71.30;;;;;;4994803;28;20095;-86
2023/04/25 08:11:32;;;;;;;4.05;1.67;;;10.40;71.30;;;;;;5013699;28;20033;-87
2023/04/25 08:13:58;;;;;;;2.33;1.60;;;10.40;71.30;;;;;;4995521;28;20052;-85
2023/04/25 08:16:24;;;;;;;2.78;1.60;;;10.40;71.20;;;;;;4997885;28;20065;-85
2023/04/25 08:18:51;;;;;;;2.45;1.67;;;10.50;71.30;;;;;;4998989;28;20083;-85
2023/04/25 08:21:17;;;;;;;2.47;1.60;;;10.50;71.20;;;;;;5011714;28;20026;-87
2023/04/25 08:23:43;;;;;;;2.97;1.70;;;10.50;71.20;;;;;;4994677;28;20528;-86
2023/04/25 08:26:28;;;;;;;2.28;1.40;;;10.60;71.80;;;;;;5006433;28;20032;-85
2023/04/25 08:28:55;;;;;;;2.88;1.50;;;10.60;71.10;;;;;;4996372;28;20398;-86
2023/04/25 08:31:21;;;;;;;4.22;1.73;;;10.60;71.00;;;;;;5015574;28;20073;-84
2023/04/25 08:33:54;;;;;;;1.70;1.30;;;10.70;70.90;;;;;;4994697;28;20048;-85
2023/04/25 08:36:25;;;;;;;2.33;1.40;;;10.70;70.90;;;;;;5013755;28;20192;-85
2023/04/25 08:38:51;;;;;;;2.08;1.50;;;10.70;70.80;;;;;;5017930;28;20025;-84
2023/04/25 08:41:22;;;;;;;1.35;1.23;;;10.80;70.70;;;;;;4995214;28;20021;-85
2023/04/25 08:43:49;;;;;;;2.80;1.58;;;10.90;70.70;;;;;;5014304;28;20029;-85
2023/04/25 08:46:18;;;;;;;2.67;1.30;;;10.90;70.60;;;;;;5012407;28;20049;-84
2023/04/25 08:49:11;;;;;;;1.98;1.35;;;10.90;70.50;;;;;;4996089;28;20025;-85
2023/04/25 08:51:46;;;;;;;2.72;1.30;;;11.00;70.50;;;;;;5006761;28;20290;-85
2023/04/25 08:54:14;;;;;;;1.67;1.33;;;11.00;70.40;;;;;;5016598;28;20050;-84
2023/04/25 08:56:49;;;;;;;3.50;1.40;;;11.10;70.30;;;;;;5011542;28;20486;-85
2023/04/25 08:59:17;;;;;;;1.88;1.33;;;11.20;70.30;;;;;;4994099;28;20052;-85
2023/04/25 09:01:45;;;;;;;1.77;1.30;;;11.20;70.20;;;;;;5016379;28;20040;-87
2023/04/25 09:04:12;;;;;;;2.55;1.15;;;11.30;70.20;;;;;;5013239;28;20093;-86
2023/04/25 09:06:39;;;;;;;2.72;1.48;;;11.30;70.20;;;;;;5013344;28;20132;-85
2023/04/25 09:09:07;;;;;;;1.63;1.27;;;11.40;70.10;;;;;;4997987;28;20024;-84
2023/04/25 09:11:35;;;;;;;1.65;1.30;;;11.40;70.10;;;;;;5000146;28;20128;-84
2023/04/25 09:14:20;;;;;;;2.20;1.20;;;11.50;70.00;;;;;;5013114;28;20048;-86
2023/04/25 09:17:04;;;;;;;1.27;1.17;;;11.50;70.00;;;;;;5002498;28;20068;-85
2023/04/25 09:19:43;;;;;;;1.67;1.27;;;11.60;69.90;;;;;;5015826;28;20076;-83
2023/04/25 09:22:22;;;;;;;1.30;1.20;;;11.60;69.90;;;;;;4998205;28;20528;-86
2023/04/25 09:24:50;;;;;;;2.45;1.35;;;11.60;69.80;;;;;;5031078;28;20037;-85
2023/04/25 09:27:26;;;;;;;2.15;1.20;;;11.70;69.90;;;;;;4988097;28;20046;-84
2023/04/25 09:30:01;;;;;;;2.00;1.30;;;11.70;69.90;;;;;;5043512;28;20164;-90
2023/04/25 09:32:38;;;;;;;1.77;1.27;;;11.70;69.80;;;;;;5011405;28;20029;-84
2023/04/25 09:35:05;;;;;;;1.80;1.20;;;11.70;69.80;;;;;;5004466;28;20032;-85
2023/04/25 09:37:31;;;;;;;3.70;1.50;;;11.80;69.90;;;;;;5011139;28;20040;-85
2023/04/25 09:40:40;;;;;;;2.00;0.98;;;11.80;69.80;;;;;;4955737;28;20058;-85
2023/04/25 09:43:22;;;;;;;1.83;1.10;;;11.80;69.80;;;;;;4938516;29;20549;-84
2023/04/25 09:45:51;;;;;;;2.80;1.33;;;11.80;69.70;;;;;;5001348;28;20482;-85
2023/04/25 09:48:22;;;;;;;1.20;1.10;;;11.80;69.70;;;;;;5006106;28;20061;-85
2023/04/25 09:51:07;;;;;;;3.00;1.50;;;11.90;69.70;;;;;;5034988;28;20847;-85
2023/04/25 09:53:35;;;;;;;2.50;1.27;;;11.90;69.70;;;;;;5015377;28;20032;-84
2023/04/25 09:56:12;;;;;;;2.08;1.40;;;11.90;69.60;;;;;;5003162;28;20025;-85
2023/04/25 09:58:41;;;;;;;1.33;1.13;;;12.00;69.60;;;;;;5001126;28;20409;-86
2023/04/25 10:01:10;;;;;;;1.52;1.20;;;12.00;69.50;;;;;;5016539;28;20018;-87
2023/04/25 10:03:50;;;;;;;1.15;1.05;;;12.00;69.50;;;;;;5032570;28;20025;-87
2023/04/25 10:06:28;;;;;;;1.67;1.30;;;12.10;69.50;;;;;;5029298;28;20033;-91
2023/04/25 10:08:55;;;;;;;2.30;1.02;;;12.10;69.40;;;;;;4979828;28;20084;-86
2023/04/25 10:11:24;;;;;;;2.30;1.10;;;12.10;69.30;;;;;;5006463;28;20116;-85
2023/04/25 10:13:50;;;;;;;1.98;1.17;;;12.20;69.20;;;;;;5021990;28;20489;-87
2023/04/25 10:16:16;;;;;;;0.90;0.90;;;12.20;69.10;;;;;;4998112;28;20030;-87
2023/04/25 10:18:42;;;;;;;1.33;1.10;;;12.30;69.00;;;;;;5031858;28;20034;-85
2023/04/25 10:21:08;;;;;;;1.95;1.20;;;12.30;68.90;;;;;;5007935;28;20032;-88
2023/04/25 10:23:36;;;;;;;1.88;1.10;;;12.40;68.80;;;;;;5036802;28;20033;-87
2023/04/25 10:26:02;;;;;;;2.20;1.30;;;12.50;68.70;;;;;;5021802;28;20136;-87
2023/04/25 10:28:28;;;;;;;1.95;1.10;;;12.60;68.70;;;;;;5001339;28;20069;-86
2023/04/25 10:31:16;;;;;;;1.35;1.23;;;12.60;68.60;;;;;;5032942;28;20029;-88
2023/04/25 10:33:43;;;;;;;1.73;1.13;;;12.70;68.70;;;;;;4993958;28;20040;-84
2023/04/25 10:36:14;;;;;;;1.42;1.05;;;12.80;68.60;;;;;;5016785;28;20033;-85
2023/04/25 10:38:42;;;;;;;2.15;1.20;;;12.80;68.60;;;;;;5036374;28;20029;-84
2023/04/25 10:41:09;;;;;;;1.67;1.15;;;12.80;68.60;;;;;;5015514;28;20466;-87
2023/04/25 10:43:46;;;;;;;1.33;1.15;;;12.90;68.60;;;;;;5017726;28;20116;-86
2023/04/25 10:46:25;;;;;;;1.45;1.10;;;13.00;68.70;;;;;;5031124;28;20045;-85
2023/04/25 10:48:53;;;;;;;1.85;1.00;;;13.00;68.70;;;;;;5009715;28;20132;-85
2023/04/25 10:51:27;;;;;;;2.72;1.25;;;13.10;68.70;;;;;;5016941;28;20032;-86
2023/04/25 10:53:57;;;;;;;1.15;1.05;;;13.10;68.70;;;;;;4992313;28;20026;-85
2023/04/25 10:56:26;;;;;;;1.30;1.10;;;13.20;68.70;;;;;;5017113;28;20048;-85
2023/04/25 10:59:02;;;;;;;1.27;1.00;;;13.20;68.70;;;;;;5016346;28;20021;-87
2023/04/25 11:01:44;;;;;;;1.17;1.00;;;13.20;68.60;;;;;;5014921;28;20025;-87
2023/04/25 11:04:38;;;;;;;1.70;1.10;;;13.30;68.60;;;;;;5013854;28;20029;-88
2023/04/25 11:07:25;;;;;;;0.95;0.90;;;13.30;68.60;;;;;;5017615;28;20049;-86
2023/04/25 11:09:51;;;;;;;1.90;1.20;;;13.40;68.60;;;;;;5008582;28;20036;-87
2023/04/25 11:12:17;;;;;;;1.55;1.00;;;13.40;68.40;;;;;;5024387;28;20042;-85
2023/04/25 11:14:43;;;;;;;1.85;1.20;;;13.40;68.40;;;;;;5018248;28;20522;-85
2023/04/25 11:17:10;;;;;;;1.10;1.00;;;13.50;68.40;;;;;;5021609;28;20053;-86
2023/04/25 11:19:36;;;;;;;2.15;1.08;;;13.50;68.30;;;;;;5017375;28;20014;-87
2023/04/25 11:22:03;;;;;;;1.83;1.23;;;13.60;68.30;;;;;;4995942;28;20030;-86
2023/04/25 11:24:30;;;;;;;2.67;1.20;;;13.60;68.20;;;;;;5014149;28;20018;-87
2023/04/25 11:26:58;;;;;;;1.27;0.95;;;13.60;68.10;;;;;;4992611;28;20041;-84
2023/04/25 11:29:27;;;;;;;0.98;0.90;;;13.70;68.00;;;;;;5004197;28;20042;-84
2023/04/25 11:31:55;;;;;;;4.45;1.15;;;13.80;68.00;;;;;;5011887;28;20022;-85
2023/04/25 11:34:21;;;;;;;1.23;1.13;;;13.80;67.90;;;;;;5013591;28;20518;-85
2023/04/25 11:36:47;;;;;;;1.23;0.98;;;13.90;67.90;;;;;;4977563;28;20026;-86
2023/04/25 11:39:15;;;;;;;1.52;0.98;;;13.90;67.80;;;;;;5009070;28;20475;-86
2023/04/25 11:41:42;;;;;;;1.45;0.98;;;14.00;67.80;;;;;;4994211;28;20030;-86
2023/04/25 11:44:08;;;;;;;2.67;1.30;;;14.00;67.80;;;;;;4980446;28;20037;-86
2023/04/25 11:46:36;;;;;;;1.63;1.30;;;14.10;67.80;;;;;;5008266;28;20042;-86
2023/04/25 11:49:04;;;;;;;1.13;1.00;;;14.10;67.70;;;;;;4993635;28;20022;-86
2023/04/25 11:51:31;;;;;;;1.55;1.10;;;14.10;67.70;;;;;;5009009;28;20026;-87
2023/04/25 11:53:57;;;;;;;1.27;1.05;;;14.20;67.70;;;;;;4994148;28;20062;-86
2023/04/25 11:56:23;;;;;;;1.48;1.15;;;14.30;67.70;;;;;;5013487;28;20119;-86
2023/04/25 11:59:03;;;;;;;2.40;1.20;;;14.30;67.70;;;;;;5022323;28;20108;-88
2023/04/25 12:01:34;;;;;;;2.72;1.10;;;14.40;67.80;;;;;;5021602;28;20037;-87
2023/04/25 12:04:12;;;;;;;1.95;1.10;;;14.50;67.70;;;;;;5020779;28;20022;-86
2023/04/25 12:06:42;;;;;;;1.38;1.20;;;14.50;67.60;;;;;;4995570;28;20057;-87
2023/04/25 12:09:13;;;;;;;1.55;1.10;;;14.60;67.60;;;;;;5004617;28;20022;-86
2023/04/25 12:11:43;;;;;;;1.92;1.70;;;14.60;67.50;;;;;;5009645;28;20030;-87
2023/04/25 12:14:10;;;;;;;2.08;1.25;;;14.70;67.50;;;;;;4984242;28;20081;-89
2023/04/25 12:16:43;;;;;;;2.15;1.00;;;14.70;67.40;;;;;;4992921;28;20434;-86
2023/04/25 12:19:09;;;;;;;1.92;1.10;;;14.80;67.40;;;;;;5008196;28;20174;-87
2023/04/25 12:21:36;;;;;;;1.67;1.00;;;14.80;67.30;;;;;;4979179;28;20084;-86
2023/04/25 12:24:15;;;;;;;2.17;1.20;;;14.90;67.30;;;;;;4975912;28;20048;-86
2023/04/25 12:26:51;;;;;;;1.38;1.10;;;14.90;67.30;;;;;;5004677;28;20270;-84
2023/04/25 12:29:25;;;;;;;1.67;1.20;;;14.90;67.30;;;;;;5009718;28;20112;-87
2023/04/25 12:31:52;;;;;;;2.13;1.13;;;15.00;67.30;;;;;;5017781;28;20022;-85
2023/04/25 12:34:19;;;;;;;1.52;1.00;;;15.00;67.20;;;;;;4994128;28;20041;-86
2023/04/25 12:36:45;;;;;;;2.05;1.15;;;15.00;67.20;;;;;;4991479;28;20022;-86
2023/04/25 12:39:15;;;;;;;2.10;1.20;;;15.00;67.20;;;;;;4993771;28;20038;-86
2023/04/25 12:41:41;;;;;;;1.33;1.13;;;15.00;67.20;;;;;;5031036;28;20022;-87
2023/04/25 12:44:07;;;;;;;1.25;1.05;;;15.00;67.10;;;;;;5020116;28;20646;-88
2023/04/25 12:46:33;;;;;;;2.30;1.10;;;15.00;67.10;;;;;;5017944;28;20029;-85
2023/04/25 12:49:00;;;;;;;1.95;0.98;;;15.00;67.10;;;;;;5010777;28;20048;-85
2023/04/25 12:51:27;;;;;;;2.00;0.90;;;15.10;67.20;;;;;;4998933;28;20537;-85
2023/04/25 12:53:55;;;;;;;1.38;1.10;;;15.10;67.20;;;;;;4993887;28;20034;-85
2023/04/25 12:56:21;;;;;;;1.85;1.27;;;15.00;67.20;;;;;;4994676;28;20032;-87
2023/04/25 12:58:48;;;;;;;1.30;0.90;;;15.10;67.20;;;;;;5010465;28;20030;-86
2023/04/25 13:01:14;;;;;;;1.55;1.13;;;15.10;67.20;;;;;;5010362;28;20125;-86
2023/04/25 13:03:40;;;;;;;3.25;1.25;;;15.10;67.20;;;;;;4992948;28;20061;-87
2023/04/25 13:06:07;;;;;;;2.22;1.00;;;15.10;67.20;;;;;;5005909;28;20042;-87
2023/04/25 13:08:33;;;;;;;2.05;1.30;;;15.10;67.20;;;;;;4986670;28;20026;-87